Time;durP1;ratioP1;P1;durP2;ratioP2;P2;SDS_P1;SDS_P2;PMS_P1;PMS_P2;Temp;Humidity;BMP_temperature;BMP_pressure;BME280_temperature;BME280_humidity;BME280_pressure;Samples;Min_cycle;Max_cycle;Signal;HPM_P1;HPM_P2
2022/06/11 00:02:10;;;;;;;5.45;5.15;;;;;;;15.57;100.00;102078.53;5163056;28;20033;-63
2022/06/11 00:04:43;;;;;;;5.45;5.15;;;;;;;15.56;100.00;102083.16;5178987;28;20407;-63
2022/06/11 00:07:21;;;;;;;5.10;4.72;;;;;;;15.51;100.00;102083.09;5179260;28;20477;-63
2022/06/11 00:09:52;;;;;;;6.72;5.28;;;;;;;15.49;100.00;102087.97;5179200;28;20061;-63
2022/06/11 00:12:24;;;;;;;5.88;5.50;;;;;;;15.43;100.00;102083.56;5179318;28;20027;-63
2022/06/11 00:14:55;;;;;;;6.90;5.97;;;;;;;15.39;100.00;102085.16;5162636;28;20161;-63
2022/06/11 00:17:26;;;;;;;10.95;6.03;;;;;;;15.36;100.00;102082.94;5178812;28;20058;-62
2022/06/11 00:19:58;;;;;;;4.70;4.30;;;;;;;15.23;100.00;102073.31;5179070;28;20033;-63
2022/06/11 00:22:28;;;;;;;9.73;5.85;;;;;;;15.30;100.00;102092.97;5182029;28;20061;-63
2022/06/11 00:24:59;;;;;;;7.97;6.15;;;;;;;15.30;100.00;102084.81;5182606;28;20062;-63
2022/06/11 00:27:29;;;;;;;6.78;6.15;;;;;;;15.30;100.00;102079.38;5168307;28;20573;-63
2022/06/11 00:30:00;;;;;;;6.00;5.47;;;;;;;15.29;100.00;102083.16;5166514;28;20494;-66
2022/06/11 00:32:31;;;;;;;8.65;5.10;;;;;;;15.28;100.00;102086.16;5181841;28;20035;-63
2022/06/11 00:35:03;;;;;;;8.60;6.28;;;;;;;15.25;100.00;102086.66;5166297;28;20479;-65
2022/06/11 00:37:34;;;;;;;5.05;4.65;;;;;;;15.18;100.00;102068.63;5183139;28;20034;-64
2022/06/11 00:40:07;;;;;;;8.73;5.82;;;;;;;15.23;100.00;102078.75;5182980;28;20490;-63
2022/06/11 00:42:38;;;;;;;5.15;4.85;;;;;;;14.99;100.00;102039.34;5183177;28;20022;-64
2022/06/11 00:45:21;;;;;;;5.57;5.10;;;;;;;15.22;100.00;102079.81;5182353;28;20229;-65
2022/06/11 00:48:01;;;;;;;5.35;5.05;;;;;;;15.23;100.00;102080.66;5166385;28;20037;-63
2022/06/11 00:50:38;;;;;;;5.65;5.13;;;;;;;15.20;100.00;102068.38;5182616;28;20030;-64
2022/06/11 00:53:18;;;;;;;5.38;4.88;;;;;;;15.25;100.00;102068.44;5167494;28;20025;-64
2022/06/11 00:55:50;;;;;;;6.30;5.78;;;;;;;15.27;100.00;102071.72;5167301;28;20030;-65
2022/06/11 00:58:26;;;;;;;7.78;5.20;;;;;;;15.25;100.00;102073.88;5182903;28;20426;-64
2022/06/11 01:00:59;;;;;;;5.43;5.13;;;;;;;15.25;100.00;102071.16;5165866;28;20030;-64
2022/06/11 01:03:43;;;;;;;5.22;4.93;;;;;;;15.06;100.00;102051.63;5233696;23;20032;-78
2022/06/11 01:06:31;;;;;;;5.85;5.43;;;;;;;15.19;100.00;102077.63;5250356;28;20107;-79
2022/06/11 01:09:04;;;;;;;6.82;6.13;;;;;;;15.16;100.00;102067.25;5229871;28;20112;-79
2022/06/11 01:11:41;;;;;;;8.13;4.75;;;;;;;15.11;100.00;102072.63;5229628;28;20486;-80
2022/06/11 01:14:14;;;;;;;5.13;4.60;;;;;;;15.07;100.00;102068.78;5228528;28;20482;-78
2022/06/11 01:17:26;;;;;;;6.43;5.88;;;;;;;14.01;100.00;101903.41;5227553;28;20159;-79
2022/06/11 01:20:22;;;;;;;4.88;4.57;;;;;;;14.68;100.00;102030.84;5196559;28;20394;-78
2022/06/11 01:23:20;;;;;;;5.88;5.30;;;;;;;14.89;100.00;102059.06;5191476;28;20124;-77
2022/06/11 01:26:27;;;;;;;6.05;5.55;;;;;;;14.61;100.00;102008.47;5227575;28;20029;-79
2022/06/11 01:29:31;;;;;;;10.02;5.68;;;;;;;14.90;100.00;102058.00;5227072;28;20376;-79
2022/06/11 01:32:40;;;;;;;7.22;6.72;;;;;;;14.91;100.00;102066.97;5230571;28;20322;-78
2022/06/11 01:35:56;;;;;;;5.53;4.97;;;;;;;14.87;100.00;102063.94;5234904;28;20045;-79
2022/06/11 01:44:32;;;;;;;6.30;5.68;;;;;;;15.05;100.00;102065.50;5228908;22;20041;-61
2022/06/11 01:47:03;;;;;;;6.70;6.15;;;;;;;15.06;100.00;102072.56;5205407;28;20526;-61
2022/06/11 01:49:39;;;;;;;6.40;5.95;;;;;;;15.05;100.00;102062.75;5205302;28;20025;-61
2022/06/11 01:52:20;;;;;;;5.18;4.78;;;;;;;15.04;100.00;102066.56;5205161;28;20515;-61
2022/06/11 01:55:24;;;;;;;6.18;5.65;;;;;;;15.03;100.00;102067.63;5204832;28;20422;-62
2022/06/11 01:58:21;;;;;;;5.70;5.25;;;;;;;15.04;100.00;102067.38;5205186;28;20025;-61
2022/06/11 02:01:06;;;;;;;6.22;5.57;;;;;;;14.96;100.00;102051.53;5206256;28;20029;-63
2022/06/11 02:07:28;;;;;;;5.20;4.88;;;;;;;15.31;100.00;102063.84;5206975;28;20033;-61
2022/06/11 02:10:09;;;;;;;5.40;5.10;;;;;;;15.38;100.00;102065.28;5205134;28;20039;-61
2022/06/11 02:12:55;;;;;;;7.30;6.65;;;;;;;15.46;100.00;102061.25;5205037;28;20087;-61
2022/06/11 02:15:31;;;;;;;6.10;5.65;;;;;;;15.53;100.00;102059.97;5206290;28;20549;-61
2022/06/11 02:18:09;;;;;;;7.47;5.70;;;;;;;15.58;100.00;102066.56;5205499;28;20092;-61
2022/06/11 02:20:59;;;;;;;7.55;6.00;;;;;;;15.64;100.00;102074.50;5204764;28;20030;-61
2022/06/11 02:23:38;;;;;;;;;;;;;;;15.75;100.00;102067.25;5204924;28;20067;-62
2022/06/11 02:26:16;;;;;;;6.05;5.53;;;;;;;15.80;100.00;102072.72;5204101;28;20389;-62
2022/06/11 02:28:49;;;;;;;6.05;5.65;;;;;;;15.79;100.00;102066.47;5204381;28;20120;-64
2022/06/11 02:31:35;;;;;;;6.85;6.32;;;;;;;15.83;100.00;102072.22;5204831;28;20470;-62
2022/06/11 02:34:07;;;;;;;6.30;5.90;;;;;;;15.75;100.00;102050.91;5204326;28;20022;-62
2022/06/11 02:37:09;;;;;;;7.35;6.85;;;;;;;15.94;100.00;102073.09;5204921;28;20025;-62
2022/06/11 02:39:43;;;;;;;5.32;4.30;;;;;;;15.95;100.00;102072.81;5204906;28;20028;-62
2022/06/11 02:42:17;;;;;;;5.45;5.07;;;;;;;15.99;100.00;102079.41;5204476;28;20025;-62
2022/06/11 02:44:48;;;;;;;6.18;5.60;;;;;;;16.02;100.00;102084.31;5203182;28;20473;-62
2022/06/11 02:47:19;;;;;;;8.23;5.10;;;;;;;15.91;100.00;102066.25;5204534;28;20026;-62
2022/06/11 02:49:50;;;;;;;6.55;5.95;;;;;;;16.03;100.00;102072.34;5204106;28;20063;-61
2022/06/11 02:52:23;;;;;;;6.22;5.82;;;;;;;16.05;100.00;102070.19;5203314;28;20516;-62
2022/06/11 02:54:54;;;;;;;7.97;5.03;;;;;;;16.08;100.00;102080.56;5203238;28;20025;-60
2022/06/11 03:00:51;;;;;;;8.80;4.43;;;;;;;16.12;100.00;102069.94;5205469;28;20072;-60
2022/06/11 03:03:23;;;;;;;7.97;6.00;;;;;;;15.97;100.00;102056.22;5203313;28;20033;-62
2022/06/11 03:16:18;;;;;;;5.85;5.32;;;;;;;16.26;100.00;102100.28;5203767;28;20053;-61
2022/06/11 03:18:49;;;;;;;5.00;4.65;;;;;;;16.13;100.00;102080.59;5204037;28;20025;-61
2022/06/11 03:21:20;;;;;;;4.72;4.30;;;;;;;16.16;100.00;102079.25;5204230;28;20021;-62
2022/06/11 03:23:50;;;;;;;5.35;4.65;;;;;;;16.31;100.00;102105.75;5205512;28;20041;-66
2022/06/11 03:26:21;;;;;;;5.20;4.00;;;;;;;16.30;100.00;102098.66;5204010;28;20028;-63
2022/06/11 03:28:52;;;;;;;4.63;4.43;;;;;;;16.31;100.00;102100.31;5205429;28;20029;-61
2022/06/11 03:52:41;;;;;;;9.60;4.25;;;;;;;16.44;100.00;102127.09;5203278;28;20041;-62
2022/06/11 03:55:11;;;;;;;3.30;3.13;;;;;;;16.44;100.00;102127.09;5203402;28;20025;-61
2022/06/11 03:57:44;;;;;;;3.97;2.70;;;;;;;16.48;100.00;102129.00;5207706;28;20044;-63
2022/06/11 04:03:24;;;;;;;7.07;3.80;;;;;;;16.53;100.00;102128.22;5210022;28;20132;-63
2022/06/11 04:05:55;;;;;;;6.50;3.90;;;;;;;16.52;100.00;102132.03;5207823;28;20025;-62
2022/06/11 04:09:09;;;;;;;4.30;2.97;;;;;;;16.63;100.00;102139.19;5208008;28;20018;-60
2022/06/11 04:11:40;;;;;;;3.50;3.17;;;;;;;16.65;100.00;102145.25;5208057;28;20025;-62
2022/06/11 04:14:11;;;;;;;3.30;3.00;;;;;;;16.70;100.00;102145.28;5206887;28;20029;-62
2022/06/11 04:16:49;;;;;;;3.65;3.35;;;;;;;16.71;100.00;102163.28;5209365;28;20479;-61
2022/06/11 04:22:46;;;;;;;2.72;2.53;;;;;;;16.53;100.00;102122.78;5209197;28;20087;-63
2022/06/11 04:25:18;;;;;;;3.67;3.10;;;;;;;16.76;100.00;102157.81;5207478;28;20033;-61
2022/06/11 04:27:53;;;;;;;3.67;2.78;;;;;;;16.81;100.00;102159.75;5208373;28;20072;-61
2022/06/11 04:30:25;;;;;;;3.22;3.03;;;;;;;16.74;100.00;102137.38;5207710;28;20036;-61
2022/06/11 04:32:56;;;;;;;2.50;2.40;;;;;;;16.88;100.00;102157.63;5207439;28;20112;-61
2022/06/11 04:38:33;;;;;;;2.70;2.60;;;;;;;16.87;100.00;102164.97;5223892;28;20408;-60
2022/06/11 04:41:04;;;;;;;2.40;2.20;;;;;;;16.90;100.00;102166.34;5189353;28;20029;-60
2022/06/11 04:43:35;;;;;;;4.68;3.03;;;;;;;16.93;100.00;102165.00;5189567;28;20090;-60
2022/06/11 04:46:06;;;;;;;3.50;3.13;;;;;;;16.91;100.00;102170.72;5215610;28;20033;-61
2022/06/11 04:48:37;;;;;;;3.53;3.00;;;;;;;16.96;100.00;102169.94;5206355;28;20036;-61
2022/06/11 04:51:10;;;;;;;4.43;2.72;;;;;;;16.57;100.00;102107.53;5206440;28;20056;-60
2022/06/11 04:53:42;;;;;;;4.97;3.13;;;;;;;17.10;100.00;102169.16;5206065;28;20033;-61
2022/06/11 04:56:15;;;;;;;3.90;3.47;;;;;;;17.25;100.00;102165.66;5222737;28;20060;-60
2022/06/11 04:58:47;;;;;;;6.60;3.00;;;;;;;17.38;100.00;102170.59;5222838;28;20037;-60
2022/06/11 05:01:17;;;;;;;6.03;2.70;;;;;;;17.40;100.00;102168.41;5206347;28;20040;-60
2022/06/11 05:03:48;;;;;;;4.22;2.63;;;;;;;17.45;100.00;102173.91;5205609;28;20029;-60
2022/06/11 05:06:24;;;;;;;3.17;2.92;;;;;;;17.42;100.00;102168.16;5205560;28;20663;-60
2022/06/11 05:08:55;;;;;;;2.75;2.65;;;;;;;17.40;100.00;102170.31;5233674;28;20024;-60
2022/06/11 05:11:26;;;;;;;5.45;3.15;;;;;;;17.40;100.00;102176.59;5225882;28;20024;-61
2022/06/11 05:13:57;;;;;;;5.53;3.25;;;;;;;17.19;100.00;102158.53;5220523;28;20078;-59
2022/06/11 05:16:28;;;;;;;3.78;2.90;;;;;;;17.26;100.00;102166.47;5189143;28;20335;-61
2022/06/11 05:18:59;;;;;;;6.10;2.88;;;;;;;17.30;100.00;102183.97;5205951;28;20409;-61
2022/06/11 05:21:29;;;;;;;3.85;2.20;;;;;;;17.27;100.00;102185.31;5218382;28;20033;-61
2022/06/11 05:24:00;;;;;;;7.20;3.22;;;;;;;17.20;100.00;102180.13;5226202;28;20032;-61
2022/06/11 05:26:38;;;;;;;10.27;6.32;;;;;;;17.23;100.00;102186.94;5223418;28;20032;-61
2022/06/11 05:29:16;;;;;;;3.47;2.65;;;;;;;17.20;100.00;102187.47;5205365;28;20114;-61
2022/06/11 05:31:47;;;;;;;6.60;3.47;;;;;;;17.24;100.00;102187.78;5207014;28;20021;-60
2022/06/11 05:34:21;;;;;;;5.70;3.47;;;;;;;17.17;100.00;102198.94;5226869;28;20017;-60
2022/06/11 05:36:52;;;;;;;7.45;3.17;;;;;;;17.16;100.00;102192.66;5225584;28;20021;-61
2022/06/11 05:39:23;;;;;;;3.47;2.70;;;;;;;17.10;100.00;102201.09;5225730;28;20040;-61
2022/06/11 05:41:54;;;;;;;4.18;3.72;;;;;;;17.08;100.00;102201.34;5225686;28;20021;-62
2022/06/11 05:44:25;;;;;;;11.65;4.18;;;;;;;17.06;100.00;102197.25;5223654;28;20029;-60
2022/06/11 05:46:55;;;;;;;5.47;3.42;;;;;;;17.05;100.00;102198.31;5224786;28;20393;-61
2022/06/11 05:49:32;;;;;;;11.45;4.60;;;;;;;16.86;100.00;102185.16;5226943;28;20021;-62
2022/06/11 05:52:07;;;;;;;3.30;3.08;;;;;;;16.74;100.00;102184.56;5225963;28;20017;-61
2022/06/11 05:54:40;;;;;;;7.70;3.78;;;;;;;16.79;100.00;102187.31;5215046;28;20130;-61
2022/06/11 05:57:13;;;;;;;4.63;3.40;;;;;;;16.87;100.00;102191.44;5205326;28;20508;-60
2022/06/11 05:59:51;;;;;;;7.97;3.53;;;;;;;17.04;100.00;102185.78;5204715;28;20044;-61
2022/06/11 06:02:23;;;;;;;5.63;4.00;;;;;;;17.19;100.00;102188.56;5205147;28;20033;-61
2022/06/11 06:04:55;;;;;;;8.02;3.65;;;;;;;17.47;100.00;102174.44;5204458;28;20124;-61
2022/06/11 06:07:25;;;;;;;4.28;3.45;;;;;;;17.76;100.00;102184.91;5206890;28;20029;-62
2022/06/11 06:09:56;;;;;;;12.50;5.28;;;;;;;17.93;100.00;102188.19;5225192;28;20025;-62
2022/06/11 06:12:31;;;;;;;3.08;2.78;;;;;;;18.17;100.00;102191.22;5225294;28;20663;-62
2022/06/11 06:15:12;;;;;;;8.27;3.88;;;;;;;18.40;100.00;102195.28;5209601;28;20017;-61
2022/06/11 06:17:43;;;;;;;11.10;3.63;;;;;;;18.58;100.00;102199.31;5221826;28;20029;-61
2022/06/11 06:20:15;;;;;;;5.65;2.75;;;;;;;18.65;100.00;102184.31;5224104;28;20032;-62
2022/06/11 06:22:46;;;;;;;3.75;3.35;;;;;;;18.84;100.00;102209.97;5222728;28;20119;-60
2022/06/11 06:25:21;;;;;;;4.00;3.63;;;;;;;18.69;100.00;102201.00;5224892;28;20623;-60
2022/06/11 06:28:38;;;;;;;5.18;3.80;;;;;;;18.56;100.00;102200.44;5225673;28;20033;-61
2022/06/11 06:31:11;;;;;;;7.57;3.42;;;;;;;18.60;100.00;102205.38;5224371;28;20381;-61
2022/06/11 06:33:42;;;;;;;6.75;3.38;;;;;;;18.58;100.00;102202.06;5224345;28;20032;-60
2022/06/11 06:36:14;;;;;;;7.47;4.00;;;;;;;18.67;100.00;102209.47;5221846;28;20420;-61
2022/06/11 06:38:45;;;;;;;3.95;2.92;;;;;;;18.70;100.00;102203.44;5223316;28;20024;-61
2022/06/11 06:41:16;;;;;;;9.27;4.43;;;;;;;18.51;100.00;102192.22;5224525;28;20115;-61
2022/06/11 06:43:48;;;;;;;6.93;4.65;;;;;;;18.72;100.00;102214.94;5223452;28;20112;-61
2022/06/11 06:46:19;;;;;;;4.63;4.15;;;;;;;19.10;100.00;102218.06;5222849;28;20491;-61
2022/06/11 06:48:50;;;;;;;5.53;3.35;;;;;;;19.43;100.00;102224.78;5224573;28;20399;-61
2022/06/11 06:51:20;;;;;;;7.45;3.72;;;;;;;19.67;100.00;102213.97;5224870;28;20029;-61
2022/06/11 06:53:51;;;;;;;3.03;2.80;;;;;;;19.71;100.00;102215.84;5223657;28;20017;-61
2022/06/11 06:56:25;;;;;;;9.10;4.45;;;;;;;19.74;100.00;102201.59;5224242;28;20051;-61
2022/06/11 06:58:57;;;;;;;7.50;4.05;;;;;;;19.76;100.00;102215.81;5224302;28;20573;-61
2022/06/11 07:01:28;;;;;;;6.25;3.67;;;;;;;19.91;100.00;102228.63;5224147;28;20035;-61
2022/06/11 07:03:59;;;;;;;5.15;3.25;;;;;;;20.07;100.00;102238.34;5254800;23;20033;-83
2022/06/11 07:06:32;;;;;;;8.68;3.38;;;;;;;20.10;100.00;102231.47;5254981;28;20096;-83
2022/06/11 07:09:04;;;;;;;8.60;4.78;;;;;;;19.93;100.00;102198.16;5251035;28;20052;-85
2022/06/11 07:11:35;;;;;;;8.00;4.05;;;;;;;19.82;100.00;102164.53;5251334;28;20047;-78
2022/06/11 07:14:05;;;;;;;6.35;3.80;;;;;;;20.15;100.00;102210.31;5251218;28;20021;-77
2022/06/11 07:16:45;;;;;;;8.80;5.53;;;;;;;20.29;100.00;102226.09;5250203;28;20107;-80
2022/06/11 07:19:19;;;;;;;;;;;;;;;20.43;100.00;102236.16;5231119;28;20028;-79
2022/06/11 07:21:54;;;;;;;4.65;3.05;;;;;;;20.60;100.00;102232.97;5230929;28;20289;-79
2022/06/11 07:24:28;;;;;;;9.43;3.28;;;;;;;20.52;100.00;102239.06;5230288;28;20124;-78
2022/06/11 07:27:10;;;;;;;6.63;4.05;;;;;;;20.22;100.00;102205.28;5229188;28;20379;-79
2022/06/11 07:29:49;;;;;;;5.60;4.95;;;;;;;20.22;100.00;102245.63;5228223;28;20112;-78
2022/06/11 07:32:23;;;;;;;7.15;3.85;;;;;;;20.02;100.00;102235.66;5226835;28;20048;-81
2022/06/11 07:34:54;;;;;;;8.88;5.13;;;;;;;20.35;100.00;102227.69;5226614;28;20021;-78
2022/06/11 07:37:24;;;;;;;4.80;4.38;;;;;;;20.50;100.00;102186.44;5229819;28;20145;-79
2022/06/11 07:39:54;;;;;;;9.23;3.72;;;;;;;21.04;100.00;102234.69;5247435;28;20043;-79
2022/06/11 07:42:25;;;;;;;12.13;4.72;;;;;;;21.00;100.00;102225.41;5249217;28;20370;-78
2022/06/11 07:44:55;;;;;;;7.50;5.18;;;;;;;21.37;100.00;102225.47;5249704;28;20043;-79
2022/06/11 07:50:15;;;;;;;9.93;5.03;;;;;;;21.71;100.00;102224.44;5252795;28;20036;-80
2022/06/11 07:52:46;;;;;;;7.90;3.88;;;;;;;21.95;100.00;102230.66;5261194;28;20028;-80
2022/06/11 07:55:17;;;;;;;19.27;3.95;;;;;;;22.07;100.00;102233.81;5260771;28;20095;-80
2022/06/11 07:57:47;;;;;;;7.03;4.05;;;;;;;21.60;100.00;102221.06;5258930;28;20021;-80
2022/06/11 08:00:23;;;;;;;9.73;3.75;;;;;;;21.39;100.00;102201.25;5274152;28;20036;-81
2022/06/11 08:02:54;;;;;;;11.23;6.60;;;;;;;22.05;100.00;102237.97;5254666;28;20056;-80
2022/06/11 08:05:26;;;;;;;9.77;3.80;;;;;;;22.50;100.00;102228.94;5253630;28;20036;-81
2022/06/11 08:07:57;;;;;;;7.55;4.88;;;;;;;22.62;100.00;102164.28;5253457;28;20031;-84
2022/06/11 08:10:29;;;;;;;5.43;4.53;;;;;;;23.40;100.00;102235.66;5250837;28;20024;-82
2022/06/11 08:13:00;;;;;;;13.40;5.30;;;;;;;23.81;100.00;102218.22;5256742;28;20021;-81
2022/06/11 08:15:31;;;;;;;8.80;5.18;;;;;;;23.93;100.00;102239.75;5256063;28;20024;-82
2022/06/11 08:18:02;;;;;;;5.13;2.85;;;;;;;23.26;98.82;102140.38;5261547;28;20149;-89
2022/06/11 08:20:34;;;;;;;4.40;4.03;;;;;;;23.60;90.06;102228.94;5249404;28;20036;-85
2022/06/11 08:23:06;;;;;;;9.02;4.50;;;;;;;22.77;96.02;102147.47;5250105;28;20084;-85
2022/06/11 08:25:37;;;;;;;2.63;2.38;;;;;;;23.88;100.00;102230.47;5249754;28;20038;-85
2022/06/11 08:28:12;;;;;;;8.60;4.47;;;;;;;24.12;92.13;102212.78;5239448;28;20029;-79
2022/06/11 08:30:45;;;;;;;5.28;4.85;;;;;;;24.37;99.47;102247.22;5238893;28;20107;-81
2022/06/11 08:33:17;;;;;;;18.63;3.83;;;;;;;24.50;91.38;102255.44;5254085;28;20089;-81
2022/06/11 08:35:47;;;;;;;5.35;4.38;;;;;;;24.61;91.97;102255.16;5253239;28;20371;-80
2022/06/11 08:38:20;;;;;;;6.65;2.40;;;;;;;24.57;89.69;102244.72;5235937;28;20032;-81
2022/06/11 08:40:56;;;;;;;11.90;4.95;;;;;;;24.66;86.59;102246.72;5252932;28;20032;-80
2022/06/11 08:43:42;;;;;;;6.20;3.25;;;;;;;24.65;90.43;102245.91;5253098;28;20039;-80
2022/06/11 08:46:17;;;;;;;5.28;2.58;;;;;;;24.71;85.88;102258.47;5255504;28;20036;-81
2022/06/11 08:49:07;;;;;;;4.18;2.72;;;;;;;24.76;87.59;102254.75;5255695;28;20035;-81
2022/06/11 08:51:37;;;;;;;;;;;;;;;25.31;91.01;102255.13;5255902;28;20482;-81
2022/06/11 08:54:24;;;;;;;6.35;3.22;;;;;;;25.69;85.65;102249.03;5255759;28;19908;-80
2022/06/11 08:57:21;;;;;;;8.35;3.60;;;;;;;25.41;83.18;102254.78;5253903;28;20016;-80
2022/06/11 09:00:09;;;;;;;6.97;3.90;;;;;;;25.02;85.59;102247.41;5254254;28;20055;-81
2022/06/11 09:03:00;;;;;;;4.20;3.90;;;;;;;24.97;89.63;102244.78;5254199;28;20020;-80
2022/06/11 09:05:49;;;;;;;6.05;3.60;;;;;;;24.99;89.20;102233.41;5254433;28;20025;-80
2022/06/11 09:08:29;;;;;;;2.97;2.33;;;;;;;24.83;89.47;102244.84;5254547;28;20028;-80
2022/06/11 09:11:42;;;;;;;8.32;4.82;;;;;;;24.62;91.01;102243.78;5256641;28;20033;-79
2022/06/11 09:14:35;;;;;;;11.70;4.78;;;;;;;24.17;88.21;102246.59;5233405;28;20020;-80
2022/06/11 09:17:42;;;;;;;3.35;3.03;;;;;;;24.02;89.46;102246.94;5250652;28;20025;-80
2022/06/11 09:20:45;;;;;;;8.73;5.03;;;;;;;24.00;88.13;102242.88;5234764;28;20036;-79
2022/06/11 09:23:38;;;;;;;5.85;3.47;;;;;;;23.65;86.84;102231.59;5211239;28;20128;-80
2022/06/11 09:26:14;;;;;;;6.97;4.25;;;;;;;23.76;94.98;102237.66;5251102;28;20045;-83
2022/06/11 09:29:09;;;;;;;5.60;3.85;;;;;;;23.94;90.02;102238.63;5251702;28;20123;-82
2022/06/11 09:31:42;;;;;;;7.10;3.20;;;;;;;23.99;86.82;102232.97;5249313;28;20029;-80
2022/06/11 09:34:20;;;;;;;4.78;3.22;;;;;;;24.01;89.33;102239.00;5233995;28;20059;-79
2022/06/11 09:37:02;;;;;;;8.30;3.67;;;;;;;23.75;85.86;102216.72;5249349;28;20031;-79
2022/06/11 09:39:39;;;;;;;3.88;3.58;;;;;;;24.06;86.03;102230.59;5233859;28;20063;-79
2022/06/11 09:42:41;;;;;;;4.72;3.53;;;;;;;24.29;85.51;102231.41;5232295;28;20017;-82
2022/06/11 09:45:18;;;;;;;6.07;4.38;;;;;;;24.29;82.23;102239.69;5232143;28;20112;-78
2022/06/11 09:48:13;;;;;;;9.38;3.97;;;;;;;24.28;87.72;102221.50;5246031;28;20486;-81
2022/06/11 09:51:09;;;;;;;4.03;3.58;;;;;;;24.43;83.17;102244.03;5236870;28;20029;-80
2022/06/11 09:53:39;;;;;;;6.15;2.45;;;;;;;24.47;84.41;102252.50;5235521;28;20027;-82
2022/06/11 09:56:37;;;;;;;5.35;2.72;;;;;;;24.17;84.26;102194.16;5250895;28;20084;-81
2022/06/11 09:59:38;;;;;;;10.90;5.22;;;;;;;24.57;83.10;102252.19;5240323;28;20070;-80
2022/06/11 10:05:01;;;;;;;5.38;3.15;;;;;;;24.03;79.08;102176.03;5234945;28;20123;-82
2022/06/11 10:07:42;;;;;;;2.40;2.20;;;;;;;24.10;83.18;102221.38;5236374;28;20037;-82
2022/06/11 10:10:30;;;;;;;4.15;3.70;;;;;;;24.35;86.34;102242.00;5236107;28;20017;-81
2022/06/11 10:13:12;;;;;;;4.60;4.20;;;;;;;24.47;80.82;102241.44;5235479;28;20021;-81
2022/06/11 10:15:46;;;;;;;8.07;3.78;;;;;;;24.32;79.09;102230.78;5252239;28;20463;-82
2022/06/11 10:18:23;;;;;;;3.85;2.67;;;;;;;23.98;77.50;102168.69;5256433;28;20032;-82
2022/06/11 10:20:59;;;;;;;4.38;4.07;;;;;;;24.41;79.96;102228.91;5256780;28;20024;-83
2022/06/11 10:23:46;;;;;;;3.03;2.70;;;;;;;24.09;78.20;102205.13;5255667;28;20031;-82
2022/06/11 10:26:36;;;;;;;2.60;1.95;;;;;;;24.22;83.45;102235.44;5255270;28;20486;-81
2022/06/11 10:29:20;;;;;;;6.38;2.83;;;;;;;24.41;83.97;102248.22;5253623;28;20028;-83
2022/06/11 10:31:55;;;;;;;4.85;3.63;;;;;;;24.10;82.26;102243.44;5254612;28;20444;-82
2022/06/11 10:34:27;;;;;;;3.03;2.55;;;;;;;24.31;84.89;102248.47;5250327;28;20513;-81
2022/06/11 10:37:17;;;;;;;2.50;2.30;;;;;;;24.64;83.33;102238.75;5232596;28;20049;-83
2022/06/11 10:40:16;;;;;;;4.35;2.63;;;;;;;24.78;85.88;102247.78;5234180;28;20021;-82
2022/06/11 10:43:22;;;;;;;6.10;3.93;;;;;;;24.84;81.72;102234.59;5234179;28;20036;-81
2022/06/11 10:45:52;;;;;;;3.78;3.45;;;;;;;24.97;79.54;102221.84;5232981;28;20288;-82
2022/06/11 10:48:25;;;;;;;4.88;3.90;;;;;;;25.13;80.13;102232.13;5246518;28;20481;-82
2022/06/11 10:50:58;;;;;;;4.55;4.07;;;;;;;24.94;82.48;102219.69;5255125;28;20025;-82
2022/06/11 10:53:41;;;;;;;7.88;4.30;;;;;;;25.07;80.56;102216.03;5254182;28;20397;-81
2022/06/11 10:56:21;;;;;;;7.45;3.17;;;;;;;25.09;74.22;102214.59;5251282;28;20025;-82
2022/06/11 10:59:13;;;;;;;4.88;2.78;;;;;;;24.95;78.97;102218.56;5253959;28;20016;-81
2022/06/11 11:01:49;;;;;;;4.22;3.92;;;;;;;24.79;85.04;102171.22;5253799;28;20031;-81
2022/06/11 11:04:22;;;;;;;2.78;2.50;;;;;;;25.26;79.15;102227.63;5253865;28;20028;-81
2022/06/11 11:07:10;;;;;;;4.95;2.83;;;;;;;25.41;80.17;102224.38;5253117;28;20036;-81
2022/06/11 11:09:41;;;;;;;4.13;2.50;;;;;;;25.23;76.42;102164.66;5272402;28;20028;-83
2022/06/11 11:12:22;;;;;;;4.78;2.70;;;;;;;25.26;74.07;102208.25;5263940;28;20337;-81
2022/06/11 11:15:01;;;;;;;3.28;2.55;;;;;;;25.12;73.03;102216.69;5264816;28;20024;-81
2022/06/11 11:17:32;;;;;;;3.35;2.95;;;;;;;25.07;78.03;102221.56;5266591;28;20020;-81
2022/06/11 11:20:32;;;;;;;1.95;1.80;;;;;;;25.43;81.30;102219.34;5267358;28;20035;-82
2022/06/11 11:23:23;;;;;;;10.32;4.80;;;;;;;25.65;76.74;102223.16;5260313;28;20017;-81
2022/06/11 11:26:25;;;;;;;10.77;2.97;;;;;;;25.79;76.30;102232.09;5271469;28;20097;-82
2022/06/11 11:29:08;;;;;;;2.50;2.30;;;;;;;25.95;77.84;102211.09;5250259;28;20417;-82
2022/06/11 11:31:49;;;;;;;4.88;2.28;;;;;;;25.56;71.95;102221.16;5271962;28;20470;-81
2022/06/11 11:34:26;;;;;;;11.35;3.10;;;;;;;25.54;75.98;102203.25;5253199;28;20091;-81
2022/06/11 11:37:12;;;;;;;3.58;3.28;;;;;;;25.86;75.82;102226.88;5256708;28;20039;-81
2022/06/11 11:39:52;;;;;;;1.77;1.63;;;;;;;25.57;72.60;102225.53;5254889;28;20059;-81
2022/06/11 11:42:38;;;;;;;8.15;3.35;;;;;;;25.27;73.35;102175.91;5270400;28;20040;-81
2022/06/11 11:45:43;;;;;;;4.43;3.90;;;;;;;25.76;78.17;102214.16;5254854;28;20032;-83
2022/06/11 11:48:43;;;;;;;4.85;1.40;;;;;;;25.99;76.26;102222.31;5254313;28;20024;-79
2022/06/11 11:51:23;;;;;;;3.42;2.35;;;;;;;25.97;75.72;102216.28;5252574;28;20067;-83
2022/06/11 11:53:59;;;;;;;2.22;1.45;;;;;;;25.98;74.14;102212.38;5254387;28;20074;-81
2022/06/11 11:56:31;;;;;;;2.28;1.95;;;;;;;26.02;76.84;102213.34;5254697;28;20029;-81
2022/06/11 11:59:29;;;;;;;2.60;2.40;;;;;;;26.19;78.97;102203.06;5253230;28;20147;-79
2022/06/11 12:02:24;;;;;;;7.15;3.38;;;;;;;26.41;76.30;102209.53;5250963;28;20109;-80
2022/06/11 12:05:23;;;;;;;2.35;2.20;;;;;;;26.48;75.07;102196.81;5252739;28;20028;-80
2022/06/11 12:07:56;;;;;;;5.47;2.45;;;;;;;26.63;74.59;102192.66;5250120;28;20090;-80
2022/06/11 12:10:39;;;;;;;2.28;1.77;;;;;;;26.72;76.03;102196.22;5256954;28;20099;-81
2022/06/11 12:13:24;;;;;;;5.72;3.35;;;;;;;26.71;77.77;102196.53;5258385;28;20032;-81
2022/06/11 12:16:06;;;;;;;4.95;3.47;;;;;;;26.85;75.25;102197.91;5262383;28;20089;-81
2022/06/11 12:18:45;;;;;;;4.78;2.95;;;;;;;26.78;74.05;102194.88;5264847;28;20091;-80
2022/06/11 12:21:23;;;;;;;8.18;2.80;;;;;;;26.29;70.02;102187.22;5283441;28;20034;-81
2022/06/11 12:24:06;;;;;;;3.90;2.30;;;;;;;26.26;73.00;102190.66;5260737;28;20025;-81
2022/06/11 12:26:46;;;;;;;3.72;3.20;;;;;;;26.23;79.42;102190.19;5261133;28;20032;-80
2022/06/11 12:29:37;;;;;;;7.28;2.15;;;;;;;26.88;76.89;102188.94;5256822;28;20086;-79
2022/06/11 12:32:28;;;;;;;4.38;2.42;;;;;;;27.29;78.40;102181.88;5258156;28;20120;-80
2022/06/11 12:35:00;;;;;;;7.22;3.38;;;;;;;27.40;77.28;102179.50;5256195;28;20059;-79
2022/06/11 12:38:03;;;;;;;3.35;3.00;;;;;;;27.15;71.10;102182.09;5257637;28;20111;-80
2022/06/11 12:40:46;;;;;;;4.13;2.45;;;;;;;27.23;74.00;102185.97;5260306;28;20036;-79
2022/06/11 12:43:26;;;;;;;2.42;2.28;;;;;;;27.32;73.99;102178.41;5256411;28;20024;-80
2022/06/11 12:45:59;;;;;;;2.80;2.60;;;;;;;27.86;74.88;102181.25;5257016;28;20067;-79
2022/06/11 12:48:54;;;;;;;4.57;1.52;;;;;;;27.65;69.46;102194.34;5256178;28;20021;-79
2022/06/11 12:51:34;;;;;;;10.02;2.08;;;;;;;27.27;70.83;102194.44;5255252;28;20478;-79
2022/06/11 12:54:24;;;;;;;3.95;2.63;;;;;;;27.05;70.20;102190.84;5256046;28;20033;-79
2022/06/11 12:57:20;;;;;;;9.45;3.05;;;;;;;27.20;74.71;102187.47;5256389;28;20028;-80
2022/06/11 13:00:03;;;;;;;2.63;2.42;;;;;;;27.28;71.75;102190.53;5254183;28;20060;-78
2022/06/11 13:05:39;;;;;;;2.63;2.33;;;;;;;27.44;72.30;102183.19;5230230;28;20041;-84
2022/06/11 13:08:54;;;;;;;3.30;1.85;;;;;;;27.45;69.86;102170.97;5233486;28;20036;-84
2022/06/11 13:11:42;;;;;;;2.08;1.98;;;;;;;28.03;70.99;102186.59;5233104;28;20025;-85
2022/06/11 13:14:47;;;;;;;4.23;3.00;;;;;;;28.35;68.88;102178.59;5231893;28;20540;-85
2022/06/11 13:17:20;;;;;;;7.40;2.58;;;;;;;29.08;71.96;102187.81;5232836;28;20260;-83